sensor_id;sensor_type;location;lat;lon;timestamp;temperature;humidity
17178;DHT22;8704;52.006;4.374;2023-02-25T00:01:18;5.10;99.90
17178;DHT22;8704;52.006;4.374;2023-02-25T00:03:47;5.70;99.90
17178;DHT22;8704;52.006;4.374;2023-02-25T00:06:15;5.20;18.70
17178;DHT22;8704;52.006;4.374;2023-02-25T00:08:44;5.10;25.30
17178;DHT22;8704;52.006;4.374;2023-02-25T00:11:14;5.10;22.30
17178;DHT22;8704;52.006;4.374;2023-02-25T00:13:44;5.10;33.60
17178;DHT22;8704;52.006;4.374;2023-02-25T00:16:13;5.20;43.80
17178;DHT22;8704;52.006;4.374;2023-02-25T00:18:41;5.20;17.80
17178;DHT22;8704;52.006;4.374;2023-02-25T00:21:13;5.90;22.80
17178;DHT22;8704;52.006;4.374;2023-02-25T00:23:43;5.20;10.30
17178;DHT22;8704;52.006;4.374;2023-02-25T00:26:12;5.20;1.00
17178;DHT22;8704;52.006;4.374;2023-02-25T00:28:40;5.30;1.00
17178;DHT22;8704;52.006;4.374;2023-02-25T00:31:11;5.30;7.10
17178;DHT22;8704;52.006;4.374;2023-02-25T00:33:40;6.00;22.80
17178;DHT22;8704;52.006;4.374;2023-02-25T00:36:11;5.30;51.70
17178;DHT22;8704;52.006;4.374;2023-02-25T00:38:39;5.40;66.20
17178;DHT22;8704;52.006;4.374;2023-02-25T00:41:09;5.40;67.60
17178;DHT22;8704;52.006;4.374;2023-02-25T00:43:39;5.40;99.90
17178;DHT22;8704;52.006;4.374;2023-02-25T00:46:08;5.40;84.40
17178;DHT22;8704;52.006;4.374;2023-02-25T00:48:38;5.80;98.20
17178;DHT22;8704;52.006;4.374;2023-02-25T00:51:07;5.40;99.90
17178;DHT22;8704;52.006;4.374;2023-02-25T00:53:36;6.10;91.00
17178;DHT22;8704;52.006;4.374;2023-02-25T00:56:05;5.30;58.10
17178;DHT22;8704;52.006;4.374;2023-02-25T00:58:34;5.30;52.80
17178;DHT22;8704;52.006;4.374;2023-02-25T01:01:03;5.30;15.60
17178;DHT22;8704;52.006;4.374;2023-02-25T01:03:32;5.20;1.90
17178;DHT22;8704;52.006;4.374;2023-02-25T01:06:01;5.20;1.00
17178;DHT22;8704;52.006;4.374;2023-02-25T01:08:29;5.20;1.00
17178;DHT22;8704;52.006;4.374;2023-02-25T01:10:58;5.60;1.00
17178;DHT22;8704;52.006;4.374;2023-02-25T01:13:26;5.20;1.00
17178;DHT22;8704;52.006;4.374;2023-02-25T01:15:54;6.40;1.00
17178;DHT22;8704;52.006;4.374;2023-02-25T01:18:22;5.20;1.00
17178;DHT22;8704;52.006;4.374;2023-02-25T01:20:50;5.20;4.50
17178;DHT22;8704;52.006;4.374;2023-02-25T01:23:19;5.20;13.70
17178;DHT22;8704;52.006;4.374;2023-02-25T01:25:49;5.30;1.00
17178;DHT22;8704;52.006;4.374;2023-02-25T01:28:17;5.20;1.00
17178;DHT22;8704;52.006;4.374;2023-02-25T01:30:45;5.60;18.80
17178;DHT22;8704;52.006;4.374;2023-02-25T01:33:13;5.20;1.00
17178;DHT22;8704;52.006;4.374;2023-02-25T01:35:41;6.30;1.00
17178;DHT22;8704;52.006;4.374;2023-02-25T01:38:09;5.20;1.00
17178;DHT22;8704;52.006;4.374;2023-02-25T01:40:39;5.20;1.00
17178;DHT22;8704;52.006;4.374;2023-02-25T01:43:12;5.30;1.00
17178;DHT22;8704;52.006;4.374;2023-02-25T01:45:42;5.30;1.00
17178;DHT22;8704;52.006;4.374;2023-02-25T01:48:13;5.20;1.00
17178;DHT22;8704;52.006;4.374;2023-02-25T01:50:46;6.10;1.00
17178;DHT22;8704;52.006;4.374;2023-02-25T01:53:19;5.30;1.00
17178;DHT22;8704;52.006;4.374;2023-02-25T01:55:49;5.30;1.00
17178;DHT22;8704;52.006;4.374;2023-02-25T01:58:19;5.30;1.00
17178;DHT22;8704;52.006;4.374;2023-02-25T02:00:48;5.30;1.00
17178;DHT22;8704;52.006;4.374;2023-02-25T02:03:22;5.30;1.00
17178;DHT22;8704;52.006;4.374;2023-02-25T02:05:59;5.30;1.00
17178;DHT22;8704;52.006;4.374;2023-02-25T02:08:28;5.30;7.70
17178;DHT22;8704;52.006;4.374;2023-02-25T02:11:00;5.20;8.90
17178;DHT22;8704;52.006;4.374;2023-02-25T02:13:30;6.30;24.40
17178;DHT22;8704;52.006;4.374;2023-02-25T02:16:13;5.00;51.90
17178;DHT22;8704;52.006;4.374;2023-02-25T02:18:45;5.00;99.90
17178;DHT22;8704;52.006;4.374;2023-02-25T02:21:24;4.90;79.90
17178;DHT22;8704;52.006;4.374;2023-02-25T02:24:29;4.80;52.10
17178;DHT22;8704;52.006;4.374;2023-02-25T02:27:06;4.80;50.60
17178;DHT22;8704;52.006;4.374;2023-02-25T02:30:11;4.90;54.10
17178;DHT22;8704;52.006;4.374;2023-02-25T02:32:45;4.70;20.00
17178;DHT22;8704;52.006;4.374;2023-02-25T02:35:21;4.70;14.10
17178;DHT22;8704;52.006;4.374;2023-02-25T02:37:57;4.70;30.00
17178;DHT22;8704;52.006;4.374;2023-02-25T02:40:40;4.70;14.60
17178;DHT22;8704;52.006;4.374;2023-02-25T02:43:20;4.70;14.90
17178;DHT22;8704;52.006;4.374;2023-02-25T02:45:56;4.60;15.70
17178;DHT22;8704;52.006;4.374;2023-02-25T02:48:33;4.60;16.50
17178;DHT22;8704;52.006;4.374;2023-02-25T02:51:08;4.60;31.50
17178;DHT22;8704;52.006;4.374;2023-02-25T02:53:42;4.60;84.90
17178;DHT22;8704;52.006;4.374;2023-02-25T02:56:11;4.60;96.00
17178;DHT22;8704;52.006;4.374;2023-02-25T02:58:42;4.90;99.90
17178;DHT22;8704;52.006;4.374;2023-02-25T03:01:14;4.70;99.90
17178;DHT22;8704;52.006;4.374;2023-02-25T03:03:47;5.30;53.40
17178;DHT22;8704;52.006;4.374;2023-02-25T03:06:20;4.80;42.00
17178;DHT22;8704;52.006;4.374;2023-02-25T03:08:57;4.80;96.60
17178;DHT22;8704;52.006;4.374;2023-02-25T03:11:25;4.70;95.00
17178;DHT22;8704;52.006;4.374;2023-02-25T03:13:53;4.80;60.90
17178;DHT22;8704;52.006;4.374;2023-02-25T03:16:24;5.00;99.90
17178;DHT22;8704;52.006;4.374;2023-02-25T03:19:00;4.80;87.70
17178;DHT22;8704;52.006;4.374;2023-02-25T03:21:35;4.80;99.90
17178;DHT22;8704;52.006;4.374;2023-02-25T03:24:08;5.20;99.90
17178;DHT22;8704;52.006;4.374;2023-02-25T03:26:37;4.80;97.50
17178;DHT22;8704;52.006;4.374;2023-02-25T03:29:15;4.80;99.90
17178;DHT22;8704;52.006;4.374;2023-02-25T03:31:47;4.90;99.90
17178;DHT22;8704;52.006;4.374;2023-02-25T03:34:21;4.90;99.90
17178;DHT22;8704;52.006;4.374;2023-02-25T03:36:54;5.40;99.90
17178;DHT22;8704;52.006;4.374;2023-02-25T03:39:26;4.80;99.90
17178;DHT22;8704;52.006;4.374;2023-02-25T03:41:59;4.80;99.90
17178;DHT22;8704;52.006;4.374;2023-02-25T03:44:32;4.70;99.90
17178;DHT22;8704;52.006;4.374;2023-02-25T03:47:03;4.70;99.90
17178;DHT22;8704;52.006;4.374;2023-02-25T03:49:35;4.70;99.90
17178;DHT22;8704;52.006;4.374;2023-02-25T03:52:10;4.70;99.90
17178;DHT22;8704;52.006;4.374;2023-02-25T03:54:39;4.70;81.90
17178;DHT22;8704;52.006;4.374;2023-02-25T03:57:07;4.80;1.00
17178;DHT22;8704;52.006;4.374;2023-02-25T03:59:36;4.80;1.00
17178;DHT22;8704;52.006;4.374;2023-02-25T04:02:05;4.80;1.00
17178;DHT22;8704;52.006;4.374;2023-02-25T04:04:35;4.70;1.00
17178;DHT22;8704;52.006;4.374;2023-02-25T04:07:04;5.40;1.00
17178;DHT22;8704;52.006;4.374;2023-02-25T04:09:32;5.40;1.00
17178;DHT22;8704;52.006;4.374;2023-02-25T04:12:00;5.20;1.00
17178;DHT22;8704;52.006;4.374;2023-02-25T04:14:28;6.10;1.00
17178;DHT22;8704;52.006;4.374;2023-02-25T04:16:56;5.40;1.00
17178;DHT22;8704;52.006;4.374;2023-02-25T04:19:24;5.50;1.00
17178;DHT22;8704;52.006;4.374;2023-02-25T04:21:53;5.30;1.00
17178;DHT22;8704;52.006;4.374;2023-02-25T04:24:21;4.80;1.00
17178;DHT22;8704;52.006;4.374;2023-02-25T04:26:49;6.10;1.00
17178;DHT22;8704;52.006;4.374;2023-02-25T04:29:27;4.70;1.00
17178;DHT22;8704;52.006;4.374;2023-02-25T04:31:55;4.70;1.00
17178;DHT22;8704;52.006;4.374;2023-02-25T04:34:24;4.60;1.00
17178;DHT22;8704;52.006;4.374;2023-02-25T04:36:53;4.70;1.00
17178;DHT22;8704;52.006;4.374;2023-02-25T04:39:21;4.70;1.00
17178;DHT22;8704;52.006;4.374;2023-02-25T04:41:49;5.80;1.00
17178;DHT22;8704;52.006;4.374;2023-02-25T04:44:17;4.90;1.00
17178;DHT22;8704;52.006;4.374;2023-02-25T04:46:45;4.80;1.00
17178;DHT22;8704;52.006;4.374;2023-02-25T04:49:19;4.80;1.00
17178;DHT22;8704;52.006;4.374;2023-02-25T04:51:48;4.80;1.00
17178;DHT22;8704;52.006;4.374;2023-02-25T04:54:19;4.90;10.60
17178;DHT22;8704;52.006;4.374;2023-02-25T04:56:47;4.90;1.00
17178;DHT22;8704;52.006;4.374;2023-02-25T04:59:15;4.80;4.50
17178;DHT22;8704;52.006;4.374;2023-02-25T05:01:43;4.80;17.90
17178;DHT22;8704;52.006;4.374;2023-02-25T05:04:11;5.10;22.80
17178;DHT22;8704;52.006;4.374;2023-02-25T05:06:39;4.90;36.70
17178;DHT22;8704;52.006;4.374;2023-02-25T05:09:07;4.90;58.40
17178;DHT22;8704;52.006;4.374;2023-02-25T05:11:37;4.90;77.50
17178;DHT22;8704;52.006;4.374;2023-02-25T05:14:05;4.90;1.00
17178;DHT22;8704;52.006;4.374;2023-02-25T05:16:33;4.90;1.00
17178;DHT22;8704;52.006;4.374;2023-02-25T05:19:01;4.90;1.00
17178;DHT22;8704;52.006;4.374;2023-02-25T05:21:30;4.90;1.00
17178;DHT22;8704;52.006;4.374;2023-02-25T05:23:58;4.90;1.00
17178;DHT22;8704;52.006;4.374;2023-02-25T05:26:26;4.90;1.00
17178;DHT22;8704;52.006;4.374;2023-02-25T05:28:56;5.20;1.00
17178;DHT22;8704;52.006;4.374;2023-02-25T05:31:25;5.00;1.00
17178;DHT22;8704;52.006;4.374;2023-02-25T05:33:53;5.00;1.00
17178;DHT22;8704;52.006;4.374;2023-02-25T05:36:21;4.90;1.00
17178;DHT22;8704;52.006;4.374;2023-02-25T05:38:54;4.90;1.00
17178;DHT22;8704;52.006;4.374;2023-02-25T05:41:24;4.90;1.00
17178;DHT22;8704;52.006;4.374;2023-02-25T05:43:52;4.80;1.00
17178;DHT22;8704;52.006;4.374;2023-02-25T05:46:22;4.80;1.00
17178;DHT22;8704;52.006;4.374;2023-02-25T05:48:51;4.80;1.00
17178;DHT22;8704;52.006;4.374;2023-02-25T05:51:20;4.80;1.00
17178;DHT22;8704;52.006;4.374;2023-02-25T05:53:49;4.80;3.40
17178;DHT22;8704;52.006;4.374;2023-02-25T05:56:20;4.90;14.50
17178;DHT22;8704;52.006;4.374;2023-02-25T05:58:48;5.70;15.00
17178;DHT22;8704;52.006;4.374;2023-02-25T06:01:19;5.20;1.00
17178;DHT22;8704;52.006;4.374;2023-02-25T06:03:50;5.60;7.70
17178;DHT22;8704;52.006;4.374;2023-02-25T06:06:19;5.00;1.00
17178;DHT22;8704;52.006;4.374;2023-02-25T06:08:49;4.80;1.00
17178;DHT22;8704;52.006;4.374;2023-02-25T06:11:20;4.80;1.00
17178;DHT22;8704;52.006;4.374;2023-02-25T06:13:49;5.00;1.00
17178;DHT22;8704;52.006;4.374;2023-02-25T06:16:18;4.70;1.00
17178;DHT22;8704;52.006;4.374;2023-02-25T06:18:48;4.70;1.00
17178;DHT22;8704;52.006;4.374;2023-02-25T06:21:17;4.60;1.00
17178;DHT22;8704;52.006;4.374;2023-02-25T06:23:45;4.60;1.00
17178;DHT22;8704;52.006;4.374;2023-02-25T06:26:16;4.60;1.00
17178;DHT22;8704;52.006;4.374;2023-02-25T06:28:44;4.60;1.00
17178;DHT22;8704;52.006;4.374;2023-02-25T06:31:14;4.60;1.00
17178;DHT22;8704;52.006;4.374;2023-02-25T06:33:42;4.60;1.00
17178;DHT22;8704;52.006;4.374;2023-02-25T06:36:13;4.50;1.00
17178;DHT22;8704;52.006;4.374;2023-02-25T06:38:41;4.50;1.00
17178;DHT22;8704;52.006;4.374;2023-02-25T06:41:13;4.60;1.00
17178;DHT22;8704;52.006;4.374;2023-02-25T06:43:42;4.60;1.00
17178;DHT22;8704;52.006;4.374;2023-02-25T06:46:12;4.70;1.00
17178;DHT22;8704;52.006;4.374;2023-02-25T06:48:41;4.80;29.10
17178;DHT22;8704;52.006;4.374;2023-02-25T06:51:09;4.70;99.90
17178;DHT22;8704;52.006;4.374;2023-02-25T06:53:41;4.60;99.90
17178;DHT22;8704;52.006;4.374;2023-02-25T06:56:11;4.50;99.90
17178;DHT22;8704;52.006;4.374;2023-02-25T06:58:40;4.40;99.90
17178;DHT22;8704;52.006;4.374;2023-02-25T07:01:08;4.40;99.90
17178;DHT22;8704;52.006;4.374;2023-02-25T07:03:37;4.60;99.90
17178;DHT22;8704;52.006;4.374;2023-02-25T07:06:05;4.40;99.90
17178;DHT22;8704;52.006;4.374;2023-02-25T07:08:34;4.40;71.20
17178;DHT22;8704;52.006;4.374;2023-02-25T07:11:26;4.40;99.90
17178;DHT22;8704;52.006;4.374;2023-02-25T07:13:56;4.40;99.90
17178;DHT22;8704;52.006;4.374;2023-02-25T07:16:24;4.40;99.90
17178;DHT22;8704;52.006;4.374;2023-02-25T07:18:52;4.30;99.90
17178;DHT22;8704;52.006;4.374;2023-02-25T07:21:21;4.50;99.90
17178;DHT22;8704;52.006;4.374;2023-02-25T07:23:49;4.30;99.90
17178;DHT22;8704;52.006;4.374;2023-02-25T07:26:18;4.20;99.90
17178;DHT22;8704;52.006;4.374;2023-02-25T07:28:47;4.20;99.90
17178;DHT22;8704;52.006;4.374;2023-02-25T07:31:16;4.20;99.90
17178;DHT22;8704;52.006;4.374;2023-02-25T07:33:45;5.00;99.90
17178;DHT22;8704;52.006;4.374;2023-02-25T07:36:14;4.20;99.90
17178;DHT22;8704;52.006;4.374;2023-02-25T07:38:43;4.20;99.90
17178;DHT22;8704;52.006;4.374;2023-02-25T07:41:14;4.20;99.90
17178;DHT22;8704;52.006;4.374;2023-02-25T07:43:43;4.20;99.90
17178;DHT22;8704;52.006;4.374;2023-02-25T07:46:12;4.20;99.90
17178;DHT22;8704;52.006;4.374;2023-02-25T07:48:40;4.30;99.90
17178;DHT22;8704;52.006;4.374;2023-02-25T07:51:10;4.20;99.90
17178;DHT22;8704;52.006;4.374;2023-02-25T07:53:38;4.20;99.90
17178;DHT22;8704;52.006;4.374;2023-02-25T07:56:07;4.20;99.90
17178;DHT22;8704;52.006;4.374;2023-02-25T07:58:36;4.20;99.90
17178;DHT22;8704;52.006;4.374;2023-02-25T08:01:08;4.30;99.90
17178;DHT22;8704;52.006;4.374;2023-02-25T08:03:36;5.30;99.90
17178;DHT22;8704;52.006;4.374;2023-02-25T08:06:05;4.60;99.90
17178;DHT22;8704;52.006;4.374;2023-02-25T08:08:34;4.80;99.90
17178;DHT22;8704;52.006;4.374;2023-02-25T08:11:05;5.60;99.90
17178;DHT22;8704;52.006;4.374;2023-02-25T08:13:33;4.90;99.90
17178;DHT22;8704;52.006;4.374;2023-02-25T08:16:03;5.10;99.90
17178;DHT22;8704;52.006;4.374;2023-02-25T08:18:33;5.20;99.90
17178;DHT22;8704;52.006;4.374;2023-02-25T08:21:01;5.30;99.90
17178;DHT22;8704;52.006;4.374;2023-02-25T08:23:30;5.40;99.90
17178;DHT22;8704;52.006;4.374;2023-02-25T08:25:58;5.40;99.90
17178;DHT22;8704;52.006;4.374;2023-02-25T08:28:27;5.40;99.90
17178;DHT22;8704;52.006;4.374;2023-02-25T08:31:02;5.40;68.80
17178;DHT22;8704;52.006;4.374;2023-02-25T08:33:30;5.50;57.40
17178;DHT22;8704;52.006;4.374;2023-02-25T08:36:07;5.50;34.10
17178;DHT22;8704;52.006;4.374;2023-02-25T08:38:36;5.50;1.00
17178;DHT22;8704;52.006;4.374;2023-02-25T08:41:05;5.80;3.60
17178;DHT22;8704;52.006;4.374;2023-02-25T08:43:35;5.60;20.00
17178;DHT22;8704;52.006;4.374;2023-02-25T08:46:04;5.70;1.00
17178;DHT22;8704;52.006;4.374;2023-02-25T08:48:32;5.70;1.00
17178;DHT22;8704;52.006;4.374;2023-02-25T08:51:02;5.70;7.80
17178;DHT22;8704;52.006;4.374;2023-02-25T08:53:36;6.70;1.00
17178;DHT22;8704;52.006;4.374;2023-02-25T08:56:04;5.70;1.00
17178;DHT22;8704;52.006;4.374;2023-02-25T08:58:33;5.80;1.00
17178;DHT22;8704;52.006;4.374;2023-02-25T09:01:05;6.40;1.00
17178;DHT22;8704;52.006;4.374;2023-02-25T09:03:34;5.90;1.00
17178;DHT22;8704;52.006;4.374;2023-02-25T09:06:03;5.90;1.00
17178;DHT22;8704;52.006;4.374;2023-02-25T09:08:31;5.90;1.00
17178;DHT22;8704;52.006;4.374;2023-02-25T09:11:04;6.00;1.00
17178;DHT22;8704;52.006;4.374;2023-02-25T09:13:32;5.90;1.00
17178;DHT22;8704;52.006;4.374;2023-02-25T09:16:00;5.90;1.00
17178;DHT22;8704;52.006;4.374;2023-02-25T09:18:28;6.90;1.00
17178;DHT22;8704;52.006;4.374;2023-02-25T09:20:57;6.00;1.00
17178;DHT22;8704;52.006;4.374;2023-02-25T09:23:25;6.10;1.00
17178;DHT22;8704;52.006;4.374;2023-02-25T09:25:54;6.00;1.00
17178;DHT22;8704;52.006;4.374;2023-02-25T09:28:23;6.10;1.00
17178;DHT22;8704;52.006;4.374;2023-02-25T09:30:51;6.00;1.00
17178;DHT22;8704;52.006;4.374;2023-02-25T09:33:19;5.50;1.00
17178;DHT22;8704;52.006;4.374;2023-02-25T09:35:47;6.20;1.00
17178;DHT22;8704;52.006;4.374;2023-02-25T09:38:15;6.40;1.00
17178;DHT22;8704;52.006;4.374;2023-02-25T09:40:45;6.40;1.00
17178;DHT22;8704;52.006;4.374;2023-02-25T09:43:19;6.30;1.00
17178;DHT22;8704;52.006;4.374;2023-02-25T09:45:50;6.30;1.00
17178;DHT22;8704;52.006;4.374;2023-02-25T09:48:23;6.30;1.00
17178;DHT22;8704;52.006;4.374;2023-02-25T09:50:58;7.50;1.00
17178;DHT22;8704;52.006;4.374;2023-02-25T09:53:34;6.30;22.20
17178;DHT22;8704;52.006;4.374;2023-02-25T09:56:04;6.70;52.60
17178;DHT22;8704;52.006;4.374;2023-02-25T09:58:36;6.10;67.40
17178;DHT22;8704;52.006;4.374;2023-02-25T10:01:15;6.50;95.90
17178;DHT22;8704;52.006;4.374;2023-02-25T10:03:52;6.10;99.90
17178;DHT22;8704;52.006;4.374;2023-02-25T10:06:27;6.20;99.90
17178;DHT22;8704;52.006;4.374;2023-02-25T10:09:04;6.40;99.90
17178;DHT22;8704;52.006;4.374;2023-02-25T10:11:42;6.60;99.90
17178;DHT22;8704;52.006;4.374;2023-02-25T10:14:26;7.00;99.90
17178;DHT22;8704;52.006;4.374;2023-02-25T10:17:04;7.20;93.30
17178;DHT22;8704;52.006;4.374;2023-02-25T10:19:48;6.40;47.20
17178;DHT22;8704;52.006;4.374;2023-02-25T10:22:32;6.40;91.50
17178;DHT22;8704;52.006;4.374;2023-02-25T10:25:09;6.40;55.30
17178;DHT22;8704;52.006;4.374;2023-02-25T10:27:43;7.30;58.00
17178;DHT22;8704;52.006;4.374;2023-02-25T10:30:15;6.90;10.50
17178;DHT22;8704;52.006;4.374;2023-02-25T10:32:45;6.70;36.90
17178;DHT22;8704;52.006;4.374;2023-02-25T10:35:17;7.40;19.60
17178;DHT22;8704;52.006;4.374;2023-02-25T10:37:46;6.90;58.40
17178;DHT22;8704;52.006;4.374;2023-02-25T10:40:16;7.20;1.00
17178;DHT22;8704;52.006;4.374;2023-02-25T10:42:46;6.90;1.00
17178;DHT22;8704;52.006;4.374;2023-02-25T10:45:19;6.90;1.00
17178;DHT22;8704;52.006;4.374;2023-02-25T10:47:54;6.90;1.00
17178;DHT22;8704;52.006;4.374;2023-02-25T10:50:26;7.30;1.00
17178;DHT22;8704;52.006;4.374;2023-02-25T10:53:13;6.80;1.00
17178;DHT22;8704;52.006;4.374;2023-02-25T10:55:47;6.80;1.00
17178;DHT22;8704;52.006;4.374;2023-02-25T10:58:21;6.80;1.00
17178;DHT22;8704;52.006;4.374;2023-02-25T11:00:57;7.00;1.00
17178;DHT22;8704;52.006;4.374;2023-02-25T11:03:29;7.00;1.00
17178;DHT22;8704;52.006;4.374;2023-02-25T11:06:10;7.10;1.00
17178;DHT22;8704;52.006;4.374;2023-02-25T11:08:38;7.30;1.00
17178;DHT22;8704;52.006;4.374;2023-02-25T11:11:14;7.10;1.00
17178;DHT22;8704;52.006;4.374;2023-02-25T11:13:43;7.80;1.00
17178;DHT22;8704;52.006;4.374;2023-02-25T11:16:12;7.40;1.00
17178;DHT22;8704;52.006;4.374;2023-02-25T11:18:42;7.40;1.00
17178;DHT22;8704;52.006;4.374;2023-02-25T11:21:11;7.40;1.00
17178;DHT22;8704;52.006;4.374;2023-02-25T11:23:44;7.70;1.00
17178;DHT22;8704;52.006;4.374;2023-02-25T11:26:13;7.40;1.00
17178;DHT22;8704;52.006;4.374;2023-02-25T11:28:45;7.80;1.00
17178;DHT22;8704;52.006;4.374;2023-02-25T11:31:17;8.40;1.00
17178;DHT22;8704;52.006;4.374;2023-02-25T11:33:52;7.80;1.00
17178;DHT22;8704;52.006;4.374;2023-02-25T11:36:24;7.80;1.00
17178;DHT22;8704;52.006;4.374;2023-02-25T11:39:06;7.90;1.00
17178;DHT22;8704;52.006;4.374;2023-02-25T11:41:34;7.80;1.00
17178;DHT22;8704;52.006;4.374;2023-02-25T11:44:23;7.80;1.00
17178;DHT22;8704;52.006;4.374;2023-02-25T11:47:06;7.70;1.00
17178;DHT22;8704;52.006;4.374;2023-02-25T11:49:51;7.70;1.00
17178;DHT22;8704;52.006;4.374;2023-02-25T11:52:30;7.80;1.00
17178;DHT22;8704;52.006;4.374;2023-02-25T11:55:10;7.80;1.00
17178;DHT22;8704;52.006;4.374;2023-02-25T11:57:51;7.40;1.00
17178;DHT22;8704;52.006;4.374;2023-02-25T12:00:24;7.50;1.00
17178;DHT22;8704;52.006;4.374;2023-02-25T12:03:07;7.20;1.00
17178;DHT22;8704;52.006;4.374;2023-02-25T12:05:48;7.10;1.00
17178;DHT22;8704;52.006;4.374;2023-02-25T12:08:43;7.00;14.30
17178;DHT22;8704;52.006;4.374;2023-02-25T12:11:38;6.90;1.00
17178;DHT22;8704;52.006;4.374;2023-02-25T12:14:57;7.00;10.80
17178;DHT22;8704;52.006;4.374;2023-02-25T12:27:27;6.90;1.00
17178;DHT22;8704;52.006;4.374;2023-02-25T12:30:13;7.10;1.00
17178;DHT22;8704;52.006;4.374;2023-02-25T12:32:56;7.10;1.00
17178;DHT22;8704;52.006;4.374;2023-02-25T12:35:41;7.20;1.00
17178;DHT22;8704;52.006;4.374;2023-02-25T12:38:51;7.50;1.00
17178;DHT22;8704;52.006;4.374;2023-02-25T12:41:38;7.20;1.00
17178;DHT22;8704;52.006;4.374;2023-02-25T12:44:33;7.30;1.00
17178;DHT22;8704;52.006;4.374;2023-02-25T12:47:13;7.30;1.00
17178;DHT22;8704;52.006;4.374;2023-02-25T12:56:04;7.80;1.00
17178;DHT22;8704;52.006;4.374;2023-02-25T12:58:42;8.00;1.00
17178;DHT22;8704;52.006;4.374;2023-02-25T13:01:32;8.30;1.00
17178;DHT22;8704;52.006;4.374;2023-02-25T13:04:27;8.50;1.00
17178;DHT22;8704;52.006;4.374;2023-02-25T13:13:50;8.60;1.00
17178;DHT22;8704;52.006;4.374;2023-02-25T13:16:30;8.60;1.00
17178;DHT22;8704;52.006;4.374;2023-02-25T13:19:19;8.70;1.00
17178;DHT22;8704;52.006;4.374;2023-02-25T13:22:02;8.80;1.00
17178;DHT22;8704;52.006;4.374;2023-02-25T13:24:44;8.80;1.00
17178;DHT22;8704;52.006;4.374;2023-02-25T13:27:37;8.80;1.00
17178;DHT22;8704;52.006;4.374;2023-02-25T13:30:21;8.80;1.00
17178;DHT22;8704;52.006;4.374;2023-02-25T13:33:04;8.50;1.00
17178;DHT22;8704;52.006;4.374;2023-02-25T13:35:44;8.90;1.00
17178;DHT22;8704;52.006;4.374;2023-02-25T13:38:34;9.10;1.00
17178;DHT22;8704;52.006;4.374;2023-02-25T13:41:13;9.60;1.00
17178;DHT22;8704;52.006;4.374;2023-02-25T13:46:58;9.80;1.00
17178;DHT22;8704;52.006;4.374;2023-02-25T13:50:00;10.00;1.00
17178;DHT22;8704;52.006;4.374;2023-02-25T13:52:33;10.20;1.00
17178;DHT22;8704;52.006;4.374;2023-02-25T13:55:23;10.50;1.00
17178;DHT22;8704;52.006;4.374;2023-02-25T14:01:15;11.20;1.00
17178;DHT22;8704;52.006;4.374;2023-02-25T14:04:07;11.10;1.00
17178;DHT22;8704;52.006;4.374;2023-02-25T14:07:04;10.60;1.00
17178;DHT22;8704;52.006;4.374;2023-02-25T14:09:44;10.40;1.00
17178;DHT22;8704;52.006;4.374;2023-02-25T14:12:26;10.50;1.00
17178;DHT22;8704;52.006;4.374;2023-02-25T14:15:23;11.00;1.00
17178;DHT22;8704;52.006;4.374;2023-02-25T14:18:08;11.30;1.00
17178;DHT22;8704;52.006;4.374;2023-02-25T14:20:45;11.50;1.00
17178;DHT22;8704;52.006;4.374;2023-02-25T14:23:24;11.40;1.00
17178;DHT22;8704;52.006;4.374;2023-02-25T14:26:14;11.00;1.00
17178;DHT22;8704;52.006;4.374;2023-02-25T14:28:56;10.60;1.00
17178;DHT22;8704;52.006;4.374;2023-02-25T14:31:37;10.50;1.00
17178;DHT22;8704;52.006;4.374;2023-02-25T14:34:34;10.60;1.00
17178;DHT22;8704;52.006;4.374;2023-02-25T14:37:21;10.90;1.00
17178;DHT22;8704;52.006;4.374;2023-02-25T14:43:02;10.70;1.00
17178;DHT22;8704;52.006;4.374;2023-02-25T14:45:34;10.70;1.00
17178;DHT22;8704;52.006;4.374;2023-02-25T14:48:05;10.40;1.00
17178;DHT22;8704;52.006;4.374;2023-02-25T14:50:42;10.20;1.00
17178;DHT22;8704;52.006;4.374;2023-02-25T14:53:53;10.00;1.00
17178;DHT22;8704;52.006;4.374;2023-02-25T14:56:45;9.90;1.00
17178;DHT22;8704;52.006;4.374;2023-02-25T14:59:39;10.20;1.00
17178;DHT22;8704;52.006;4.374;2023-02-25T15:02:27;10.00;1.00
17178;DHT22;8704;52.006;4.374;2023-02-25T15:05:15;9.80;1.00
17178;DHT22;8704;52.006;4.374;2023-02-25T15:08:02;9.80;1.00
17178;DHT22;8704;52.006;4.374;2023-02-25T15:10:54;9.70;1.00
17178;DHT22;8704;52.006;4.374;2023-02-25T15:13:53;10.00;1.00
17178;DHT22;8704;52.006;4.374;2023-02-25T15:16:38;9.50;1.00
17178;DHT22;8704;52.006;4.374;2023-02-25T15:19:44;9.40;1.00
17178;DHT22;8704;52.006;4.374;2023-02-25T15:22:22;9.80;1.00
17178;DHT22;8704;52.006;4.374;2023-02-25T15:24:52;9.40;1.00
17178;DHT22;8704;52.006;4.374;2023-02-25T15:27:44;9.40;1.00
17178;DHT22;8704;52.006;4.374;2023-02-25T15:30:16;9.20;1.00
17178;DHT22;8704;52.006;4.374;2023-02-25T15:32:50;9.00;1.00
17178;DHT22;8704;52.006;4.374;2023-02-25T15:35:21;8.80;1.00
17178;DHT22;8704;52.006;4.374;2023-02-25T15:38:04;8.70;1.00
17178;DHT22;8704;52.006;4.374;2023-02-25T15:40:48;8.50;1.00
17178;DHT22;8704;52.006;4.374;2023-02-25T15:43:39;8.50;1.00
17178;DHT22;8704;52.006;4.374;2023-02-25T15:49:21;8.50;1.00
17178;DHT22;8704;52.006;4.374;2023-02-25T15:51:56;8.30;1.00
17178;DHT22;8704;52.006;4.374;2023-02-25T15:54:44;8.10;1.00
17178;DHT22;8704;52.006;4.374;2023-02-25T15:57:33;8.00;1.00
17178;DHT22;8704;52.006;4.374;2023-02-25T16:00:02;8.00;1.00
17178;DHT22;8704;52.006;4.374;2023-02-25T16:02:40;8.00;1.00
17178;DHT22;8704;52.006;4.374;2023-02-25T16:05:33;7.80;1.00
17178;DHT22;8704;52.006;4.374;2023-02-25T16:08:11;7.80;1.00
17178;DHT22;8704;52.006;4.374;2023-02-25T16:10:42;7.90;1.00
17178;DHT22;8704;52.006;4.374;2023-02-25T16:13:14;7.70;1.00
17178;DHT22;8704;52.006;4.374;2023-02-25T16:15:45;7.30;1.00
17178;DHT22;8704;52.006;4.374;2023-02-25T16:18:19;7.30;1.00
17178;DHT22;8704;52.006;4.374;2023-02-25T16:20:57;7.30;1.00
17178;DHT22;8704;52.006;4.374;2023-02-25T16:23:25;7.20;1.00
17178;DHT22;8704;52.006;4.374;2023-02-25T16:26:01;7.60;1.00
17178;DHT22;8704;52.006;4.374;2023-02-25T16:28:39;7.80;1.00
17178;DHT22;8704;52.006;4.374;2023-02-25T16:31:14;6.90;1.00
17178;DHT22;8704;52.006;4.374;2023-02-25T16:33:50;6.90;1.00
17178;DHT22;8704;52.006;4.374;2023-02-25T16:36:27;6.80;1.00
17178;DHT22;8704;52.006;4.374;2023-02-25T16:38:59;6.60;1.00
17178;DHT22;8704;52.006;4.374;2023-02-25T16:41:29;6.60;1.00
17178;DHT22;8704;52.006;4.374;2023-02-25T16:44:05;7.10;1.00
17178;DHT22;8704;52.006;4.374;2023-02-25T16:46:34;6.50;99.90
17178;DHT22;8704;52.006;4.374;2023-02-25T16:49:09;6.30;1.00
17178;DHT22;8704;52.006;4.374;2023-02-25T16:51:40;6.30;1.00
17178;DHT22;8704;52.006;4.374;2023-02-25T16:54:13;6.30;1.00
17178;DHT22;8704;52.006;4.374;2023-02-25T16:56:45;7.30;99.90
17178;DHT22;8704;52.006;4.374;2023-02-25T16:59:18;6.50;1.00
17178;DHT22;8704;52.006;4.374;2023-02-25T17:01:54;6.60;1.00
17178;DHT22;8704;52.006;4.374;2023-02-25T17:04:25;6.10;1.00
17178;DHT22;8704;52.006;4.374;2023-02-25T17:07:13;6.00;1.00
17178;DHT22;8704;52.006;4.374;2023-02-25T17:09:45;6.00;1.00
17178;DHT22;8704;52.006;4.374;2023-02-25T17:12:17;5.90;1.00
17178;DHT22;8704;52.006;4.374;2023-02-25T17:14:47;5.80;1.00
17178;DHT22;8704;52.006;4.374;2023-02-25T17:17:19;6.00;1.00
17178;DHT22;8704;52.006;4.374;2023-02-25T17:19:48;5.70;1.00
17178;DHT22;8704;52.006;4.374;2023-02-25T17:22:20;5.90;1.00
17178;DHT22;8704;52.006;4.374;2023-02-25T17:24:50;6.00;1.00
17178;DHT22;8704;52.006;4.374;2023-02-25T17:27:20;5.50;1.00
17178;DHT22;8704;52.006;4.374;2023-02-25T17:29:48;6.10;1.00
17178;DHT22;8704;52.006;4.374;2023-02-25T17:32:20;5.40;1.00